sensor_id;sensor_type;location;lat;lon;timestamp;pressure;altitude;pressure_sealevel;temperature;humidity
46382;BME280;66809;52.974;-2.514;2023-07-29T00:01:40;996.3659991629524;;;16.634861115415887;38.678239900584146
46382;BME280;66809;52.974;-2.514;2023-07-29T00:03:40;996.3637313233183;;;16.630052443826454;38.677192989981236
46382;BME280;66809;52.974;-2.514;2023-07-29T00:05:40;996.360077294543;;;16.631725834169544;38.674768501801324
46382;BME280;66809;52.974;-2.514;2023-07-29T00:07:40;996.3576491258074;;;16.63471843770999;38.67084621753094
46382;BME280;66809;52.974;-2.514;2023-07-29T00:09:40;996.3556309456218;;;16.62287678413938;38.672911182192244
46382;BME280;66809;52.974;-2.514;2023-07-29T00:11:40;996.3524434543185;;;16.627491598683555;38.682229655327205
46382;BME280;66809;52.974;-2.514;2023-07-29T00:13:40;996.3507961171756;;;16.636204504653318;38.69254810623301
46382;BME280;66809;52.974;-2.514;2023-07-29T00:15:39;996.3484149021725;;;16.613855917698217;38.703374370213275
46382;BME280;66809;52.974;-2.514;2023-07-29T00:17:40;996.3455174743121;;;16.60130842632174;38.71976823927828
46382;BME280;66809;52.974;-2.514;2023-07-29T00:19:40;996.3441424511365;;;16.587960326564453;38.73946521646056
46382;BME280;66809;52.974;-2.514;2023-07-29T00:21:39;996.3407849423697;;;16.580214401880884;38.75985586997832
46382;BME280;66809;52.974;-2.514;2023-07-29T00:23:40;996.3363313861829;;;16.558241596431035;38.77000191457535
46382;BME280;66809;52.974;-2.514;2023-07-29T00:25:40;996.331689380821;;;16.5405853665867;38.784220559243536
46382;BME280;66809;52.974;-2.514;2023-07-29T00:27:41;996.3270263335974;;;16.51977213791363;38.79296274232625
46382;BME280;66809;52.974;-2.514;2023-07-29T00:29:40;996.3229739988375;;;16.506569298623003;38.79463495628587
46382;BME280;66809;52.974;-2.514;2023-07-29T00:31:40;996.3191818439477;;;16.496377473668534;38.794012779159154
46382;BME280;66809;52.974;-2.514;2023-07-29T00:33:39;996.3152873739223;;;16.48954143199249;38.79239875170359
46382;BME280;66809;52.974;-2.514;2023-07-29T00:35:40;996.3113321127502;;;16.478769839430164;38.776577989324856
46382;BME280;66809;52.974;-2.514;2023-07-29T00:37:40;996.30579327762;;;16.472670610733406;38.768414321234246
46382;BME280;66809;52.974;-2.514;2023-07-29T00:39:40;996.2989510631102;;;16.458644871929764;38.73804123956858
46382;BME280;66809;52.974;-2.514;2023-07-29T00:41:40;996.2919284621873;;;16.44347033543922;38.722445156171844
46382;BME280;66809;52.974;-2.514;2023-07-29T00:43:40;996.2864851691716;;;16.43562048995881;38.70624108888367
46382;BME280;66809;52.974;-2.514;2023-07-29T00:45:41;996.2816086043365;;;16.422050846480694;38.686665121158605
46382;BME280;66809;52.974;-2.514;2023-07-29T00:47:41;996.2780284608212;;;16.41026202162142;38.65602775569754
46382;BME280;66809;52.974;-2.514;2023-07-29T00:49:39;996.2739731782447;;;16.398708466953053;38.61783860665027
46382;BME280;66809;52.974;-2.514;2023-07-29T00:51:40;996.2690745647337;;;16.389205674727155;38.57410640750961
46382;BME280;66809;52.974;-2.514;2023-07-29T00:53:40;996.2640812097635;;;16.375736864355428;38.532283083457315
46382;BME280;66809;52.974;-2.514;2023-07-29T00:55:40;996.2598016896889;;;16.371567889985172;38.49007372055126
46382;BME280;66809;52.974;-2.514;2023-07-29T00:57:40;996.2550134570448;;;16.353620493834036;38.450557556018346
46382;BME280;66809;52.974;-2.514;2023-07-29T00:59:40;996.2494813481436;;;16.329497195577726;38.411077399676046
46382;BME280;66809;52.974;-2.514;2023-07-29T01:01:39;996.2454929852306;;;16.306968051888415;38.380063032446444
46382;BME280;66809;52.974;-2.514;2023-07-29T01:03:40;996.242299013389;;;16.281365933359925;38.35221918418778
46382;BME280;66809;52.974;-2.514;2023-07-29T01:05:46;996.2385964948461;;;16.266105570749282;38.329142218712015
46382;BME280;66809;52.974;-2.514;2023-07-29T01:07:47;996.2335616535804;;;16.24283992487918;38.305388519684456
46382;BME280;66809;52.974;-2.514;2023-07-29T01:09:46;996.2286809061694;;;16.21810096688258;38.273000620357564
46382;BME280;66809;52.974;-2.514;2023-07-29T01:11:45;996.2243624545467;;;16.18850765932386;38.239319507253384
46382;BME280;66809;52.974;-2.514;2023-07-29T01:13:44;996.2210369656937;;;16.159200025363376;38.20712535370164
46382;BME280;66809;52.974;-2.514;2023-07-29T01:15:44;996.217294223862;;;16.136004208694946;38.182563878912774
46382;BME280;66809;52.974;-2.514;2023-07-29T01:17:42;996.2147668232315;;;16.11157610996705;38.14540699100001
46382;BME280;66809;52.974;-2.514;2023-07-29T01:19:47;996.2109391661592;;;16.101018876836303;38.11558034125294
46382;BME280;66809;52.974;-2.514;2023-07-29T01:21:41;996.2069470915588;;;16.08125424673094;38.0934918306905
46382;BME280;66809;52.974;-2.514;2023-07-29T01:23:40;996.2040541861796;;;16.069892732356184;38.081116292615576
46382;BME280;66809;52.974;-2.514;2023-07-29T01:25:40;996.2006002201025;;;16.057169457940848;38.06415096194567
46382;BME280;66809;52.974;-2.514;2023-07-29T01:27:41;996.1957088981245;;;16.050748653612384;38.04658859729598
46382;BME280;66809;52.974;-2.514;2023-07-29T01:29:43;996.190835880613;;;16.04564704711817;38.02733314004888
46382;BME280;66809;52.974;-2.514;2023-07-29T01:31:43;996.1857823977521;;;16.0329825885954;38.007789633024764
46382;BME280;66809;52.974;-2.514;2023-07-29T01:33:45;996.1792604283378;;;16.023587278043564;37.98954909207983
46382;BME280;66809;52.974;-2.514;2023-07-29T01:35:42;996.172672956982;;;15.998606492355359;37.972205074018916
46382;BME280;66809;52.974;-2.514;2023-07-29T01:37:41;996.1660964106508;;;15.977387711933199;37.954867630464555
46382;BME280;66809;52.974;-2.514;2023-07-29T01:39:42;996.1595182441765;;;15.966218954175627;37.958659753302264
46382;BME280;66809;52.974;-2.514;2023-07-29T01:41:41;996.151633327848;;;15.953235241896618;37.94766541829435
46382;BME280;66809;52.974;-2.514;2023-07-29T01:43:40;996.1405349909736;;;15.943761450254677;37.93598253206729
46382;BME280;66809;52.974;-2.514;2023-07-29T01:45:40;996.1294294301115;;;15.929971090572003;37.932038825563694
46382;BME280;66809;52.974;-2.514;2023-07-29T01:47:40;996.1174558402339;;;15.922287588614106;37.93795039351712
46382;BME280;66809;52.974;-2.514;2023-07-29T01:49:40;996.1065317414943;;;15.911201059967851;37.9513264995862
46382;BME280;66809;52.974;-2.514;2023-07-29T01:51:40;996.0961018543286;;;15.888335969757865;37.961439864036066
46382;BME280;66809;52.974;-2.514;2023-07-29T01:53:40;996.0865155121533;;;15.865758901505728;37.97658393520578
46382;BME280;66809;52.974;-2.514;2023-07-29T01:55:42;996.0788352792224;;;15.84882311868668;37.997673972918264
46382;BME280;66809;52.974;-2.514;2023-07-29T01:57:39;996.0716547794143;;;15.830503806465027;38.01798082549528
46382;BME280;66809;52.974;-2.514;2023-07-29T01:59:40;996.0648059142269;;;15.817268032284632;38.03588360662374
46382;BME280;66809;52.974;-2.514;2023-07-29T02:01:40;996.056186832156;;;15.814264225220361;38.04799437594064
46382;BME280;66809;52.974;-2.514;2023-07-29T02:03:40;996.046557424188;;;15.807263145557188;38.050873955402
46382;BME280;66809;52.974;-2.514;2023-07-29T02:05:40;996.0369319539526;;;15.794472161567908;38.047897608671306
46382;BME280;66809;52.974;-2.514;2023-07-29T02:07:40;996.0275642281721;;;15.78955202522895;38.03528142262397
46382;BME280;66809;52.974;-2.514;2023-07-29T02:09:40;996.0195267969086;;;15.78405734460438;38.02453340838325
46382;BME280;66809;52.974;-2.514;2023-07-29T02:11:40;996.0108277473909;;;15.774123234359456;38.01707994862291
46382;BME280;66809;52.974;-2.514;2023-07-29T02:13:40;996.0002317624406;;;15.766917614413888;38.0102335275534
46382;BME280;66809;52.974;-2.514;2023-07-29T02:15:40;995.9898062048554;;;15.766603199662907;37.996764543724474
46382;BME280;66809;52.974;-2.514;2023-07-29T02:17:41;995.9790768068418;;;15.7568125013691;37.99619333790011
46382;BME280;66809;52.974;-2.514;2023-07-29T02:19:40;995.9697286072479;;;15.736253855610725;37.98676093682807
46382;BME280;66809;52.974;-2.514;2023-07-29T02:21:40;995.9620174477807;;;15.731521481538406;37.97335499458759
46382;BME280;66809;52.974;-2.514;2023-07-29T02:23:40;995.9533714445571;;;15.7214529363305;37.94814020055261
46382;BME280;66809;52.974;-2.514;2023-07-29T02:25:40;995.9452988187661;;;15.711460587938507;37.93376628695489
46382;BME280;66809;52.974;-2.514;2023-07-29T02:27:40;995.9391448536185;;;15.697249602482417;37.92057498972954
46382;BME280;66809;52.974;-2.514;2023-07-29T02:29:39;995.93238459164;;;15.679778440421924;37.91047815888952
46382;BME280;66809;52.974;-2.514;2023-07-29T02:31:40;995.9244892875993;;;15.65950924736337;37.899505240508105
46382;BME280;66809;52.974;-2.514;2023-07-29T02:33:40;995.91808981913;;;15.64023156182631;37.89764682149897
46382;BME280;66809;52.974;-2.514;2023-07-29T02:35:40;995.9102487154745;;;15.627676475228991;37.900148503159826
46382;BME280;66809;52.974;-2.514;2023-07-29T02:37:40;995.9054979607503;;;15.613725988906639;37.90411533538142
46382;BME280;66809;52.974;-2.514;2023-07-29T02:39:40;995.8996794777009;;;15.600825825152365;37.9034162755721
46382;BME280;66809;52.974;-2.514;2023-07-29T02:41:40;995.8941085194332;;;15.584606675631282;37.90134626520108
46382;BME280;66809;52.974;-2.514;2023-07-29T02:43:42;995.8911195524854;;;15.560550311280666;37.900681281815686
46382;BME280;66809;52.974;-2.514;2023-07-29T02:45:41;995.8868765379069;;;15.540583653754533;37.89535804014436
46382;BME280;66809;52.974;-2.514;2023-07-29T02:47:39;995.8832198779785;;;15.516401255697492;37.891220311147016
46382;BME280;66809;52.974;-2.514;2023-07-29T02:49:40;995.8775231239559;;;15.495907558346994;37.88151190144696
46382;BME280;66809;52.974;-2.514;2023-07-29T02:51:40;995.8711540769976;;;15.484629097024792;37.88229096618238
46382;BME280;66809;52.974;-2.514;2023-07-29T02:53:40;995.8637923649135;;;15.473634008160465;37.878034923191784
46382;BME280;66809;52.974;-2.514;2023-07-29T02:55:40;995.8550596013298;;;15.455148512049407;37.87941690013198
46382;BME280;66809;52.974;-2.514;2023-07-29T02:57:40;995.844610615764;;;15.442954174093824;37.88336682110023
46382;BME280;66809;52.974;-2.514;2023-07-29T02:59:39;995.8334764964846;;;15.433373596882085;37.902004383468224
46382;BME280;66809;52.974;-2.514;2023-07-29T03:01:40;995.821846188451;;;15.411493490008969;37.924614342413996
46382;BME280;66809;52.974;-2.514;2023-07-29T03:03:40;995.8104592321099;;;15.392106618878582;37.955168876468406
46382;BME280;66809;52.974;-2.514;2023-07-29T03:05:39;995.7997258126435;;;15.37435273486355;37.987602404654076
46382;BME280;66809;52.974;-2.514;2023-07-29T03:07:40;995.7899548080136;;;15.35382543482311;38.03043811548688
46382;BME280;66809;52.974;-2.514;2023-07-29T03:09:40;995.7781616072862;;;15.342242177769455;38.080507895830245
46382;BME280;66809;52.974;-2.514;2023-07-29T03:11:40;995.7654827523504;;;15.325174408313972;38.12037127807657
46382;BME280;66809;52.974;-2.514;2023-07-29T03:13:40;995.7548409863533;;;15.303361539210384;38.15963951327024
46382;BME280;66809;52.974;-2.514;2023-07-29T03:15:40;995.7431041629752;;;15.281884777299783;38.20415617268192
46382;BME280;66809;52.974;-2.514;2023-07-29T03:17:40;995.7311584645869;;;15.26553123051421;38.247181092176795
46382;BME280;66809;52.974;-2.514;2023-07-29T03:19:40;995.7191230710221;;;15.25553895634595;38.288915003122035
46382;BME280;66809;52.974;-2.514;2023-07-29T03:21:40;995.7073695125736;;;15.232448919881302;38.333333166007066
46382;BME280;66809;52.974;-2.514;2023-07-29T03:23:40;995.6975618384461;;;15.215131987096836;38.382113141464565
46382;BME280;66809;52.974;-2.514;2023-07-29T03:25:39;995.6888625022855;;;15.192268834288374;38.41452946583016
46382;BME280;66809;52.974;-2.514;2023-07-29T03:27:40;995.6787260330934;;;15.18395767471737;38.44328973342321
46382;BME280;66809;52.974;-2.514;2023-07-29T03:29:40;995.6696040415897;;;15.162671900654535;38.46759643444873
46382;BME280;66809;52.974;-2.514;2023-07-29T03:31:40;995.6621161463117;;;15.14274184205238;38.49655596622117
46382;BME280;66809;52.974;-2.514;2023-07-29T03:33:40;995.653300917881;;;15.121190120204538;38.52382232818402
46382;BME280;66809;52.974;-2.514;2023-07-29T03:35:40;995.6455444883201;;;15.109139916276762;38.555147843580855
46382;BME280;66809;52.974;-2.514;2023-07-29T03:37:40;995.6352186955659;;;15.083168503655177;38.58183766318587
46382;BME280;66809;52.974;-2.514;2023-07-29T03:39:40;995.6258949104392;;;15.05420583491162;38.61487812019043
46382;BME280;66809;52.974;-2.514;2023-07-29T03:41:40;995.6182815335338;;;15.021091753172325;38.655330354305285
46382;BME280;66809;52.974;-2.514;2023-07-29T03:43:39;995.6104630917476;;;15.001176266498094;38.68963175134738
46382;BME280;66809;52.974;-2.514;2023-07-29T03:45:40;995.603631986877;;;14.985487841925014;38.73175356843551
46382;BME280;66809;52.974;-2.514;2023-07-29T03:47:40;995.596609294995;;;14.966505668415003;38.77774123959033
46382;BME280;66809;52.974;-2.514;2023-07-29T03:49:39;995.590065470955;;;14.94261874048316;38.825320798887375
46382;BME280;66809;52.974;-2.514;2023-07-29T03:51:40;995.5839415925923;;;14.923703775335664;38.86824375695068
46382;BME280;66809;52.974;-2.514;2023-07-29T03:53:40;995.5773130840753;;;14.912180685719369;38.915706309487824
46382;BME280;66809;52.974;-2.514;2023-07-29T03:55:40;995.5711287216537;;;14.893795075165249;38.9569339670528
46382;BME280;66809;52.974;-2.514;2023-07-29T03:57:40;995.5654105137456;;;14.879423545571544;38.996872049278664
46382;BME280;66809;52.974;-2.514;2023-07-29T03:59:40;995.5599716211217;;;14.853407257501736;39.02540471834986
46382;BME280;66809;52.974;-2.514;2023-07-29T04:01:40;995.5563165856887;;;14.84110501117028;39.053132092225994
46382;BME280;66809;52.974;-2.514;2023-07-29T04:03:40;995.55244101546;;;14.825836086894919;39.08114372666981
46382;BME280;66809;52.974;-2.514;2023-07-29T04:05:40;995.5491551016484;;;14.808844034806798;39.11290216267459
46382;BME280;66809;52.974;-2.514;2023-07-29T04:07:40;995.5447041106506;;;14.788855207634963;39.147246306591846
46382;BME280;66809;52.974;-2.514;2023-07-29T04:09:40;995.5412288003647;;;14.7808964013605;39.17057811868718
46382;BME280;66809;52.974;-2.514;2023-07-29T04:11:39;995.5398857203929;;;14.788793645364938;39.19378375424697
46382;BME280;66809;52.974;-2.514;2023-07-29T04:13:40;995.5370444131039;;;14.79135700529183;39.21063459140637
46382;BME280;66809;52.974;-2.514;2023-07-29T04:15:40;995.534310615643;;;14.79481942947734;39.2245094245454
46382;BME280;66809;52.974;-2.514;2023-07-29T04:17:40;995.5325662500078;;;14.792004603208515;39.24274317556854
46382;BME280;66809;52.974;-2.514;2023-07-29T04:19:40;995.5310934658049;;;14.788592595586769;39.25462130189041
46382;BME280;66809;52.974;-2.514;2023-07-29T04:21:40;995.5291150824717;;;14.802372662630063;39.255755518657374
46382;BME280;66809;52.974;-2.514;2023-07-29T04:23:40;995.5274403862734;;;14.818177144219506;39.247243967654306
46382;BME280;66809;52.974;-2.514;2023-07-29T04:25:40;995.5252068780353;;;14.835345715052084;39.245071364099985
46382;BME280;66809;52.974;-2.514;2023-07-29T04:27:39;995.5236487589183;;;14.83652315486279;39.251141277283416
46382;BME280;66809;52.974;-2.514;2023-07-29T04:29:40;995.5214581195139;;;14.862915335941825;39.25895439921928
46382;BME280;66809;52.974;-2.514;2023-07-29T04:31:40;995.518735365831;;;14.888559094394695;39.25762779263966
46382;BME280;66809;52.974;-2.514;2023-07-29T04:33:40;995.5174772372054;;;14.921899527094407;39.24398598194464
46382;BME280;66809;52.974;-2.514;2023-07-29T04:35:40;995.5165107400845;;;14.945858392970216;39.224475934277685
46382;BME280;66809;52.974;-2.514;2023-07-29T04:37:39;995.514913937057;;;14.966976630968986;39.20563802608692
46382;BME280;66809;52.974;-2.514;2023-07-29T04:39:40;995.5145267195553;;;15.007530996727148;39.18439002584983
46382;BME280;66809;52.974;-2.514;2023-07-29T04:41:40;995.5142572343187;;;15.059015274257982;39.15403224597999
46382;BME280;66809;52.974;-2.514;2023-07-29T04:43:39;995.5143324224913;;;15.10546587051514;39.1286171998496
46382;BME280;66809;52.974;-2.514;2023-07-29T04:45:42;995.51497993421;;;15.144748516986676;39.09946248598943
46382;BME280;66809;52.974;-2.514;2023-07-29T04:47:40;995.5145719726202;;;15.177523819012501;39.064758879998095
46382;BME280;66809;52.974;-2.514;2023-07-29T04:49:40;995.5139278577157;;;15.212153766685;39.03512123281132
46382;BME280;66809;52.974;-2.514;2023-07-29T04:51:39;995.5125718616608;;;15.241111447768397;39.005877003524596
46382;BME280;66809;52.974;-2.514;2023-07-29T04:53:40;995.5134574061838;;;15.264996340322636;38.9647412204548
46382;BME280;66809;52.974;-2.514;2023-07-29T04:55:41;995.516457848686;;;15.293138980008942;38.928867056787844
46382;BME280;66809;52.974;-2.514;2023-07-29T04:57:40;995.5206048144436;;;15.318418688723177;38.891503479852986
46382;BME280;66809;52.974;-2.514;2023-07-29T04:59:40;995.526302675471;;;15.354622861300934;38.856308956985586
46382;BME280;66809;52.974;-2.514;2023-07-29T05:01:40;995.5311949223428;;;15.390706511575441;38.81357592230195
46382;BME280;66809;52.974;-2.514;2023-07-29T05:03:40;995.5366827731497;;;15.424465562412575;38.775126796233245
46382;BME280;66809;52.974;-2.514;2023-07-29T05:05:39;995.542246133508;;;15.451427010454498;38.73602059814708
46382;BME280;66809;52.974;-2.514;2023-07-29T05:07:40;995.5492414966795;;;15.483956988669549;38.69592950659071
46382;BME280;66809;52.974;-2.514;2023-07-29T05:09:40;995.5568201911215;;;15.508557367927674;38.66138500887314
46382;BME280;66809;52.974;-2.514;2023-07-29T05:11:40;995.5638003663896;;;15.514704736354226;38.634481687667524
46382;BME280;66809;52.974;-2.514;2023-07-29T05:13:40;995.5703454838367;;;15.539258559893398;38.60886184714066
46382;BME280;66809;52.974;-2.514;2023-07-29T05:15:40;995.5762901931924;;;15.55933616158051;38.58195197422658
46382;BME280;66809;52.974;-2.514;2023-07-29T05:17:40;995.5799441227086;;;15.57133835893155;38.54841637851114
46382;BME280;66809;52.974;-2.514;2023-07-29T05:19:40;995.5831972829739;;;15.586047350460435;38.51966655562535
46382;BME280;66809;52.974;-2.514;2023-07-29T05:21:40;995.5852316847314;;;15.590948320513512;38.5067390577406
46382;BME280;66809;52.974;-2.514;2023-07-29T05:23:40;995.5840276926309;;;15.58332347755662;38.501178279538735
46382;BME280;66809;52.974;-2.514;2023-07-29T05:25:40;995.5815659852873;;;15.58858344518939;38.49619822031793
46382;BME280;66809;52.974;-2.514;2023-07-29T05:27:40;995.5798112503782;;;15.591159237722417;38.49049687513181
46382;BME280;66809;52.974;-2.514;2023-07-29T05:29:40;995.5772624188098;;;15.595824947956718;38.485895321301435
46382;BME280;66809;52.974;-2.514;2023-07-29T05:31:39;995.5743575161819;;;15.593023147046067;38.48814597573455
46382;BME280;66809;52.974;-2.514;2023-07-29T05:33:40;995.571170230682;;;15.583272469589575;38.497270068967715
46382;BME280;66809;52.974;-2.514;2023-07-29T05:35:40;995.568154823126;;;15.578362504152729;38.50641175453639
46382;BME280;66809;52.974;-2.514;2023-07-29T05:37:40;995.5659783254338;;;15.579119883488312;38.5237147913583
46382;BME280;66809;52.974;-2.514;2023-07-29T05:39:41;995.5634219054974;;;15.57079906934462;38.54103044786551
46382;BME280;66809;52.974;-2.514;2023-07-29T05:41:40;995.5609436644801;;;15.55236627276552;38.562612317029206
46382;BME280;66809;52.974;-2.514;2023-07-29T05:43:40;995.5589031451512;;;15.534193951881953;38.58379749154585
46382;BME280;66809;52.974;-2.514;2023-07-29T05:45:40;995.5565425072583;;;15.524472244271486;38.59970780884767
46382;BME280;66809;52.974;-2.514;2023-07-29T05:47:40;995.556008511341;;;15.522982677555373;38.61510763395647
46382;BME280;66809;52.974;-2.514;2023-07-29T05:49:40;995.5554234506092;;;15.519618775604007;38.627316381244775
46382;BME280;66809;52.974;-2.514;2023-07-29T05:51:40;995.5554539384501;;;15.522646579154921;38.64178757825932
46382;BME280;66809;52.974;-2.514;2023-07-29T05:53:39;995.5554711961712;;;15.537458471556407;38.66269730005149
46382;BME280;66809;52.974;-2.514;2023-07-29T05:55:40;995.5538946386914;;;15.539099289652539;38.68181240194996
46382;BME280;66809;52.974;-2.514;2023-07-29T05:57:40;995.5495533677193;;;15.540166410035527;38.70799186992661
46382;BME280;66809;52.974;-2.514;2023-07-29T05:59:39;995.5434931996729;;;15.541129805728184;38.72822036769719
46382;BME280;66809;52.974;-2.514;2023-07-29T06:01:40;995.5374925741705;;;15.543289256475056;38.74944158318032
46382;BME280;66809;52.974;-2.514;2023-07-29T06:03:40;995.531043018539;;;15.537355939456733;38.76598347578614
46382;BME280;66809;52.974;-2.514;2023-07-29T06:05:40;995.5247219014324;;;15.549253921308775;38.78904672163002
46382;BME280;66809;52.974;-2.514;2023-07-29T06:07:40;995.5178372547257;;;15.558781827582532;38.821226024943115
46382;BME280;66809;52.974;-2.514;2023-07-29T06:09:40;995.5104407520587;;;15.578754666120002;38.85140811670373
46382;BME280;66809;52.974;-2.514;2023-07-29T06:11:40;995.5029908832037;;;15.596038145752253;38.878107052949936
46382;BME280;66809;52.974;-2.514;2023-07-29T06:13:40;995.4961811980864;;;15.601240557270955;38.902824757025996
46382;BME280;66809;52.974;-2.514;2023-07-29T06:15:40;995.4917893523601;;;15.614288614698188;38.92375687478419
46382;BME280;66809;52.974;-2.514;2023-07-29T06:17:40;995.4896163065613;;;15.651142750804109;38.937903704837595
46382;BME280;66809;52.974;-2.514;2023-07-29T06:19:40;995.4881337842799;;;15.676693807474418;38.933046493894615
46382;BME280;66809;52.974;-2.514;2023-07-29T06:21:39;995.4869158124914;;;15.708961372409261;38.92589331067841
46382;BME280;66809;52.974;-2.514;2023-07-29T06:23:40;995.4871899996028;;;15.742898162747663;38.925680423152926
46382;BME280;66809;52.974;-2.514;2023-07-29T06:25:40;995.4890446090609;;;15.774072869868222;38.92834211501688
46382;BME280;66809;52.974;-2.514;2023-07-29T06:27:40;995.4913357701947;;;15.804867109454213;38.92636567158898
46382;BME280;66809;52.974;-2.514;2023-07-29T06:29:40;995.4957544431855;;;15.830372474637292;38.91562087829411
46382;BME280;66809;52.974;-2.514;2023-07-29T06:31:40;995.500698214027;;;15.865975394435115;38.90216419830835
46382;BME280;66809;52.974;-2.514;2023-07-29T06:33:40;995.5048846496239;;;15.903905810273837;38.891985762898656
46382;BME280;66809;52.974;-2.514;2023-07-29T06:35:41;995.5103417105744;;;15.946368109866949;38.87820785082239
46382;BME280;66809;52.974;-2.514;2023-07-29T06:37:40;995.5162111669828;;;15.994438039984523;38.86841254027334
46382;BME280;66809;52.974;-2.514;2023-07-29T06:39:40;995.5237268744556;;;16.03747719374187;38.8528515079144
46382;BME280;66809;52.974;-2.514;2023-07-29T06:41:40;995.5311138889576;;;16.091076037535046;38.8316014085225
46382;BME280;66809;52.974;-2.514;2023-07-29T06:43:40;995.5382091164644;;;16.137218129031066;38.807155009312815
46382;BME280;66809;52.974;-2.514;2023-07-29T06:45:40;995.5451048906367;;;16.176380023012953;38.781223320755515
46382;BME280;66809;52.974;-2.514;2023-07-29T06:47:39;995.5514883915043;;;16.20670716565769;38.742054710034886
46382;BME280;66809;52.974;-2.514;2023-07-29T06:49:40;995.5588128169691;;;16.25329278613227;38.71078972515176
46382;BME280;66809;52.974;-2.514;2023-07-29T06:51:40;995.5661182231944;;;16.289374690379354;38.68640860362722
46382;BME280;66809;52.974;-2.514;2023-07-29T06:53:40;995.5715089329024;;;16.30515226578913;38.67798138920089
46382;BME280;66809;52.974;-2.514;2023-07-29T06:55:40;995.5764450440191;;;16.34140039578078;38.66677594881056
46382;BME280;66809;52.974;-2.514;2023-07-29T06:57:40;995.582362401681;;;16.376272842308797;38.65050595595793
46382;BME280;66809;52.974;-2.514;2023-07-29T06:59:40;995.5894679379046;;;16.40555759394135;38.64050569009535
46382;BME280;66809;52.974;-2.514;2023-07-29T07:01:40;995.5963879343627;;;16.417352367900136;38.631600935316236
46382;BME280;66809;52.974;-2.514;2023-07-29T07:03:40;995.6051217108719;;;16.461096165993492;38.617499383731314
46382;BME280;66809;52.974;-2.514;2023-07-29T07:05:40;995.61576115626;;;16.481660919392898;38.60064203284587
46382;BME280;66809;52.974;-2.514;2023-07-29T07:07:40;995.6276404832105;;;16.515774863505346;38.562538218915925
46382;BME280;66809;52.974;-2.514;2023-07-29T07:09:39;995.6395036966106;;;16.53933467199079;38.536274271528185
46382;BME280;66809;52.974;-2.514;2023-07-29T07:11:40;995.6520954565655;;;16.564404350163908;38.516562552412935
46382;BME280;66809;52.974;-2.514;2023-07-29T07:13:40;995.6634726498847;;;16.59262502145774;38.50040401903382